Thursday, October 23, 2014
05:58 UTC
  |  Log In   |  Register Free
Airport Search:

Tucson International Airport
(KTUS)

FAA data valid effective September 18, 2014 - November 13, 2014 (unless otherwise noted).

 
 
 
 
 
 
 
 
 
 
 
 
 
 

Current Aviation Weather for Tucson International Airport (KTUS)

The most recent METAR observation for KTUS was updated at: 0533
METAR Summary (Translated METAR)
KTUS
230453Z 12006KT 10SM CLR 22/09 A3005 RMK AO2 SLP136 T02220089
KDMA
230458Z AUTO 18007KT 10SM CLR 20/10 A3003 RMK AO2 SLP133 T02000095 $
(4.2 nm NE from KTUS)
KRYN
230250Z 31005KT 10SM CLR 23/11 A3002
(12 nm NW from KTUS)
TAF Summary (Translated TAF)
KTUS
230520Z 2306/2406 14008KT P6SM SKC FM232200 35007KT P6SM SKC FM240300 23005KT P6SM SKC
KDMA
(4.2 nm NE from KTUS)
2221/2403 31009KT 9999 SKC QNH2996INS BECMG 2302/2303 VRB06KT 9999 SKC QNH3001INS BECMG 2315/2316 13009KT 9999 SKC QNH3000INS TX31/2223Z TN18/2312Z
  Airport Weather Conditions for KTUS

 Current Weather at TUS
72° F
Fair
Southeast winds at 6.9 mph
TUS NOAA Radar

Pressure: 30.05 in
Humidity: 43%
Wind: Southeast at 6.9 MPH (6 KT)
Dew Point: 48.0°F
Visibility: 10.00 mi


Airport Weather Forecast for KTUS

Translated METAR and TAF for KTUS
Translated METAR for KTUS (0553 UTC 23 October 2014)
found at http://aviationweather.gov/adds/metars/
 
METAR text: KTUS 230453Z 12006KT 10SM CLR 22/09 A3005 RMK AO2 SLP136 T02220089
Conditions at: KTUS (TUCSON , AZ, US) observed 0453 UTC 23 October 2014
Temperature: 22.2°C (72°F)
Dewpoint: 8.9°C (48°F) [RH = 43%]
Pressure (altimeter): 30.05 inches Hg (1017.7 mb)
[Sea-level pressure: 1013.6 mb]
Winds: from the ESE (120 degrees) at 7 MPH (6 knots; 3.1 m/s)
Visibility: 10 or more miles (16+ km)
Ceiling: at least 12,000 feet AGL
Clouds: sky clear below 12,000 feet AGL
Weather: no significant weather observed at this time
Translated TAF for KTUS
Forecast for: KTUS (TUCSON , AZ, US)
TAF Text: KTUS 230520Z 2306/2406 14008KT P6SM SKC
Forecast period: 0600 to 2200 UTC 23 October 2014
Forecast type: FROM: standard forecast or significant change
Winds: from the SE (140 degrees) at 9 MPH (8 knots; 4.2 m/s)
Visibility: 6 or more miles (10+ km)
Clouds: clear skies
Weather: no significant weather forecast for this period
TAF Text: FM232200 35007KT P6SM SKC
Forecast period: 2200 UTC 23 October 2014 to 0300 UTC 24 October 2014
Forecast type: FROM: standard forecast or significant change
Winds: from the N (350 degrees) at 8 MPH (7 knots; 3.6 m/s)
Visibility: 6 or more miles (10+ km)
Clouds: clear skies
Weather: no significant weather forecast for this period
TAF Text: FM240300 23005KT P6SM SKC
Forecast period: 0300 to 0600 UTC 24 October 2014
Forecast type: FROM: standard forecast or significant change
Winds: from the SW (230 degrees) at 6 MPH (5 knots; 2.6 m/s)
Visibility: 6 or more miles (10+ km)
Clouds: clear skies
Weather: no significant weather forecast for this period

Find All Airport Services Find A Hotel Find A Rental Car Find A Golf Course Find A Restaurant $100 Hamburger



FBO's on the Field
FBO Company Facility Photos Services Transportation Aviation Fuel Prices: Prices include tax
Catering Weather Repair Courtesy Rental Type 100LL JetA JetA+ MOGAS 8087
 
Bombardier Aerospace

Bombardier Aerospace logo
This FBO has not yet been rated
FS:
Last Updated: Oct-16
Login to update fuel prices
SS:
Contact Bombardier AerospaceMore FBO Information
 
Atlantic Aviation

Currently rated 4.6 by 2 people
FS:Texaco
Last Updated: Oct-22
Login to update fuel prices
SS:
Contact Atlantic AviationMore FBO Information
 
Million Air

This FBO has not yet been rated
FS:Independent
Last Updated: Oct-07
Login to update fuel prices
SS:
Contact Million AirMore FBO Information
 
Million Air Tucson

Currently rated 2.2 by 3 people
FS:Independent
Last Updated: Sep-25
Login to update fuel prices
SS:
Contact Million Air TucsonMore FBO Information
 
Tucson Jet Center

Currently rated 4.4 by 3 people
FS:Independent
Last Updated: Sep-23
Login to update fuel prices
SS:
Contact Tucson Jet CenterMore FBO Information
 
Velocity Air Inc.

This FBO has not yet been rated
FS:Ascent
Last Updated: Oct-20
Login to update fuel prices
SS:
Contact Velocity Air Inc.More FBO Information
 
Add another FBO Facility Photos Catering Weather Repair Courtesy Rental Type 100LL JetA JetA+ MOGAS 8087
Services Transportation Aviation Fuel Prices: Prices include tax


model-print
model-print
model-print
model-print